sensor_id;sensor_type;location;lat;lon;timestamp;P1;durP1;ratioP1;P2;durP2;ratioP2
67130;SDS011;54051;53.464;49.532;2023-04-07T00:00:00;5.80;;;2.58;;
67130;SDS011;54051;53.464;49.532;2023-04-07T00:02:29;6.07;;;2.30;;
67130;SDS011;54051;53.464;49.532;2023-04-07T00:04:57;5.32;;;1.75;;
67130;SDS011;54051;53.464;49.532;2023-04-07T00:07:23;4.53;;;1.50;;
67130;SDS011;54051;53.464;49.532;2023-04-07T00:09:50;6.80;;;1.73;;
67130;SDS011;54051;53.464;49.532;2023-04-07T00:12:16;3.83;;;1.48;;
67130;SDS011;54051;53.464;49.532;2023-04-07T00:14:42;3.72;;;1.40;;
67130;SDS011;54051;53.464;49.532;2023-04-07T00:17:08;4.50;;;1.40;;
67130;SDS011;54051;53.464;49.532;2023-04-07T00:19:34;5.05;;;1.55;;
67130;SDS011;54051;53.464;49.532;2023-04-07T00:22:01;3.80;;;1.48;;
67130;SDS011;54051;53.464;49.532;2023-04-07T00:24:27;4.25;;;1.55;;
67130;SDS011;54051;53.464;49.532;2023-04-07T00:26:53;5.50;;;1.60;;
67130;SDS011;54051;53.464;49.532;2023-04-07T00:29:19;4.00;;;1.35;;
67130;SDS011;54051;53.464;49.532;2023-04-07T00:31:45;5.00;;;1.70;;
67130;SDS011;54051;53.464;49.532;2023-04-07T00:34:11;4.80;;;1.48;;
67130;SDS011;54051;53.464;49.532;2023-04-07T00:36:38;4.45;;;1.42;;
67130;SDS011;54051;53.464;49.532;2023-04-07T00:39:04;4.90;;;1.70;;
67130;SDS011;54051;53.464;49.532;2023-04-07T00:41:32;5.33;;;1.70;;
67130;SDS011;54051;53.464;49.532;2023-04-07T00:44:00;3.80;;;1.30;;
67130;SDS011;54051;53.464;49.532;2023-04-07T00:46:26;5.43;;;1.20;;
67130;SDS011;54051;53.464;49.532;2023-04-07T00:48:53;3.97;;;1.35;;
67130;SDS011;54051;53.464;49.532;2023-04-07T00:51:20;4.03;;;1.30;;
67130;SDS011;54051;53.464;49.532;2023-04-07T00:53:47;4.93;;;1.35;;
67130;SDS011;54051;53.464;49.532;2023-04-07T00:58:40;5.45;;;1.30;;
67130;SDS011;54051;53.464;49.532;2023-04-07T01:01:07;4.80;;;1.30;;
67130;SDS011;54051;53.464;49.532;2023-04-07T01:03:40;3.72;;;1.30;;
67130;SDS011;54051;53.464;49.532;2023-04-07T01:06:13;3.58;;;1.20;;
67130;SDS011;54051;53.464;49.532;2023-04-07T01:14:09;4.75;;;1.40;;
67130;SDS011;54051;53.464;49.532;2023-04-07T01:16:59;4.57;;;1.52;;
67130;SDS011;54051;53.464;49.532;2023-04-07T01:19:36;4.95;;;1.83;;
67130;SDS011;54051;53.464;49.532;2023-04-07T01:22:12;8.50;;;2.70;;
67130;SDS011;54051;53.464;49.532;2023-04-07T01:30:27;4.00;;;1.33;;
67130;SDS011;54051;53.464;49.532;2023-04-07T01:32:55;4.60;;;1.70;;
67130;SDS011;54051;53.464;49.532;2023-04-07T01:35:23;4.90;;;1.60;;
67130;SDS011;54051;53.464;49.532;2023-04-07T01:37:56;4.22;;;1.48;;
67130;SDS011;54051;53.464;49.532;2023-04-07T01:40:25;3.65;;;1.40;;
67130;SDS011;54051;53.464;49.532;2023-04-07T01:42:52;4.35;;;1.63;;
67130;SDS011;54051;53.464;49.532;2023-04-07T01:45:21;4.70;;;1.40;;
67130;SDS011;54051;53.464;49.532;2023-04-07T01:47:47;5.00;;;1.50;;
67130;SDS011;54051;53.464;49.532;2023-04-07T01:50:14;4.75;;;1.33;;
67130;SDS011;54051;53.464;49.532;2023-04-07T01:52:42;3.80;;;1.30;;
67130;SDS011;54051;53.464;49.532;2023-04-07T01:55:10;4.30;;;1.50;;
67130;SDS011;54051;53.464;49.532;2023-04-07T01:57:36;3.30;;;1.30;;
67130;SDS011;54051;53.464;49.532;2023-04-07T02:00:02;4.50;;;1.55;;
67130;SDS011;54051;53.464;49.532;2023-04-07T02:02:29;4.55;;;1.30;;
67130;SDS011;54051;53.464;49.532;2023-04-07T02:04:59;3.92;;;1.38;;
67130;SDS011;54051;53.464;49.532;2023-04-07T02:07:30;4.72;;;1.50;;
67130;SDS011;54051;53.464;49.532;2023-04-07T02:10:05;6.40;;;1.60;;
67130;SDS011;54051;53.464;49.532;2023-04-07T02:12:38;5.03;;;1.38;;
67130;SDS011;54051;53.464;49.532;2023-04-07T02:15:09;4.15;;;1.40;;
67130;SDS011;54051;53.464;49.532;2023-04-07T02:17:38;4.45;;;1.40;;
67130;SDS011;54051;53.464;49.532;2023-04-07T02:20:06;5.05;;;1.50;;
67130;SDS011;54051;53.464;49.532;2023-04-07T02:22:35;4.15;;;1.30;;
67130;SDS011;54051;53.464;49.532;2023-04-07T02:25:18;4.45;;;1.60;;
67130;SDS011;54051;53.464;49.532;2023-04-07T02:27:51;4.80;;;1.60;;
67130;SDS011;54051;53.464;49.532;2023-04-07T02:30:18;3.90;;;1.45;;
67130;SDS011;54051;53.464;49.532;2023-04-07T02:32:45;5.20;;;1.60;;
67130;SDS011;54051;53.464;49.532;2023-04-07T02:35:12;6.82;;;1.60;;
67130;SDS011;54051;53.464;49.532;2023-04-07T02:37:38;9.43;;;1.67;;
67130;SDS011;54051;53.464;49.532;2023-04-07T02:40:04;8.75;;;2.20;;
67130;SDS011;54051;53.464;49.532;2023-04-07T02:42:31;6.93;;;2.08;;
67130;SDS011;54051;53.464;49.532;2023-04-07T02:44:57;14.23;;;2.70;;
67130;SDS011;54051;53.464;49.532;2023-04-07T02:47:24;7.63;;;2.13;;
67130;SDS011;54051;53.464;49.532;2023-04-07T02:49:50;6.28;;;2.53;;
67130;SDS011;54051;53.464;49.532;2023-04-07T02:52:16;5.95;;;2.17;;
67130;SDS011;54051;53.464;49.532;2023-04-07T02:54:43;7.18;;;2.53;;
67130;SDS011;54051;53.464;49.532;2023-04-07T02:57:09;9.32;;;2.35;;
67130;SDS011;54051;53.464;49.532;2023-04-07T02:59:35;6.47;;;2.40;;
67130;SDS011;54051;53.464;49.532;2023-04-07T03:02:01;5.13;;;1.83;;
67130;SDS011;54051;53.464;49.532;2023-04-07T03:04:27;6.30;;;1.90;;
67130;SDS011;54051;53.464;49.532;2023-04-07T03:06:54;4.85;;;1.70;;
67130;SDS011;54051;53.464;49.532;2023-04-07T03:09:21;4.82;;;1.40;;
67130;SDS011;54051;53.464;49.532;2023-04-07T03:11:47;4.67;;;1.50;;
67130;SDS011;54051;53.464;49.532;2023-04-07T03:14:14;4.85;;;1.38;;
67130;SDS011;54051;53.464;49.532;2023-04-07T03:16:41;3.97;;;1.13;;
67130;SDS011;54051;53.464;49.532;2023-04-07T03:19:08;5.80;;;1.30;;
67130;SDS011;54051;53.464;49.532;2023-04-07T03:21:38;4.45;;;1.30;;
67130;SDS011;54051;53.464;49.532;2023-04-07T03:24:05;5.80;;;1.40;;
67130;SDS011;54051;53.464;49.532;2023-04-07T03:28:57;4.03;;;1.25;;
67130;SDS011;54051;53.464;49.532;2023-04-07T03:31:24;5.03;;;1.30;;
67130;SDS011;54051;53.464;49.532;2023-04-07T03:33:50;5.10;;;1.30;;
67130;SDS011;54051;53.464;49.532;2023-04-07T03:36:16;4.90;;;1.40;;
67130;SDS011;54051;53.464;49.532;2023-04-07T03:38:43;5.45;;;1.30;;
67130;SDS011;54051;53.464;49.532;2023-04-07T03:41:11;4.90;;;1.40;;
67130;SDS011;54051;53.464;49.532;2023-04-07T03:43:37;5.43;;;1.73;;
67130;SDS011;54051;53.464;49.532;2023-04-07T03:46:04;4.28;;;1.40;;
67130;SDS011;54051;53.464;49.532;2023-04-07T03:48:30;7.43;;;1.90;;
67130;SDS011;54051;53.464;49.532;2023-04-07T03:50:56;5.82;;;1.80;;
67130;SDS011;54051;53.464;49.532;2023-04-07T03:53:23;6.70;;;2.15;;
67130;SDS011;54051;53.464;49.532;2023-04-07T03:55:49;4.65;;;1.42;;
67130;SDS011;54051;53.464;49.532;2023-04-07T03:58:15;5.07;;;1.40;;
67130;SDS011;54051;53.464;49.532;2023-04-07T04:00:42;4.40;;;1.70;;
67130;SDS011;54051;53.464;49.532;2023-04-07T04:03:08;3.70;;;1.40;;
67130;SDS011;54051;53.464;49.532;2023-04-07T04:05:35;3.95;;;1.40;;
67130;SDS011;54051;53.464;49.532;2023-04-07T04:08:01;5.35;;;1.50;;
67130;SDS011;54051;53.464;49.532;2023-04-07T04:10:28;4.65;;;1.40;;
67130;SDS011;54051;53.464;49.532;2023-04-07T04:12:54;5.13;;;1.50;;
67130;SDS011;54051;53.464;49.532;2023-04-07T04:15:20;4.40;;;1.40;;
67130;SDS011;54051;53.464;49.532;2023-04-07T04:17:46;3.50;;;1.23;;
67130;SDS011;54051;53.464;49.532;2023-04-07T04:20:13;6.00;;;1.60;;
67130;SDS011;54051;53.464;49.532;2023-04-07T04:22:39;4.83;;;1.67;;
67130;SDS011;54051;53.464;49.532;2023-04-07T04:25:05;5.30;;;1.50;;
67130;SDS011;54051;53.464;49.532;2023-04-07T04:27:32;4.55;;;1.60;;
67130;SDS011;54051;53.464;49.532;2023-04-07T04:29:58;4.93;;;1.40;;
67130;SDS011;54051;53.464;49.532;2023-04-07T04:32:24;5.65;;;1.70;;
67130;SDS011;54051;53.464;49.532;2023-04-07T04:34:51;5.35;;;1.70;;
67130;SDS011;54051;53.464;49.532;2023-04-07T04:37:17;4.05;;;1.60;;
67130;SDS011;54051;53.464;49.532;2023-04-07T04:39:43;4.47;;;1.75;;
67130;SDS011;54051;53.464;49.532;2023-04-07T04:42:10;4.88;;;1.73;;
67130;SDS011;54051;53.464;49.532;2023-04-07T04:44:36;5.60;;;2.15;;
67130;SDS011;54051;53.464;49.532;2023-04-07T04:47:02;5.47;;;1.73;;
67130;SDS011;54051;53.464;49.532;2023-04-07T04:49:28;5.63;;;1.67;;
67130;SDS011;54051;53.464;49.532;2023-04-07T04:51:54;4.82;;;1.80;;
67130;SDS011;54051;53.464;49.532;2023-04-07T04:54:21;4.47;;;1.60;;
67130;SDS011;54051;53.464;49.532;2023-04-07T04:56:47;6.38;;;2.33;;
67130;SDS011;54051;53.464;49.532;2023-04-07T04:59:13;5.10;;;1.80;;
67130;SDS011;54051;53.464;49.532;2023-04-07T05:04:06;4.63;;;2.05;;
67130;SDS011;54051;53.464;49.532;2023-04-07T05:06:33;6.85;;;2.40;;
67130;SDS011;54051;53.464;49.532;2023-04-07T05:09:00;6.30;;;2.40;;
67130;SDS011;54051;53.464;49.532;2023-04-07T05:11:26;6.22;;;2.63;;
67130;SDS011;54051;53.464;49.532;2023-04-07T05:13:52;8.40;;;3.28;;
67130;SDS011;54051;53.464;49.532;2023-04-07T05:16:18;6.80;;;2.40;;
67130;SDS011;54051;53.464;49.532;2023-04-07T05:18:45;7.35;;;2.42;;
67130;SDS011;54051;53.464;49.532;2023-04-07T05:21:11;9.40;;;2.83;;
67130;SDS011;54051;53.464;49.532;2023-04-07T05:23:37;6.57;;;3.10;;
67130;SDS011;54051;53.464;49.532;2023-04-07T05:26:03;11.65;;;4.53;;
67130;SDS011;54051;53.464;49.532;2023-04-07T05:30:56;9.77;;;3.22;;
67130;SDS011;54051;53.464;49.532;2023-04-07T05:33:22;8.48;;;4.22;;
67130;SDS011;54051;53.464;49.532;2023-04-07T05:35:48;9.90;;;4.07;;
67130;SDS011;54051;53.464;49.532;2023-04-07T05:40:41;8.20;;;3.10;;
67130;SDS011;54051;53.464;49.532;2023-04-07T05:43:08;8.80;;;2.60;;
67130;SDS011;54051;53.464;49.532;2023-04-07T05:45:34;6.50;;;2.65;;
67130;SDS011;54051;53.464;49.532;2023-04-07T05:48:00;7.40;;;2.45;;
67130;SDS011;54051;53.464;49.532;2023-04-07T05:50:26;8.25;;;3.13;;
67130;SDS011;54051;53.464;49.532;2023-04-07T05:52:53;9.27;;;2.92;;
67130;SDS011;54051;53.464;49.532;2023-04-07T05:57:46;8.60;;;2.72;;
67130;SDS011;54051;53.464;49.532;2023-04-07T06:00:12;5.63;;;2.70;;
67130;SDS011;54051;53.464;49.532;2023-04-07T06:02:39;6.10;;;2.30;;
67130;SDS011;54051;53.464;49.532;2023-04-07T06:05:05;6.28;;;2.45;;
67130;SDS011;54051;53.464;49.532;2023-04-07T06:07:32;6.50;;;2.50;;
67130;SDS011;54051;53.464;49.532;2023-04-07T06:09:58;8.32;;;2.00;;
67130;SDS011;54051;53.464;49.532;2023-04-07T06:12:25;7.93;;;2.42;;
67130;SDS011;54051;53.464;49.532;2023-04-07T06:17:18;5.97;;;2.28;;
67130;SDS011;54051;53.464;49.532;2023-04-07T06:19:45;6.43;;;2.63;;
67130;SDS011;54051;53.464;49.532;2023-04-07T06:22:11;8.77;;;3.22;;
67130;SDS011;54051;53.464;49.532;2023-04-07T06:27:03;8.48;;;3.10;;
67130;SDS011;54051;53.464;49.532;2023-04-07T06:29:31;8.55;;;3.20;;
67130;SDS011;54051;53.464;49.532;2023-04-07T06:31:58;7.30;;;3.55;;
67130;SDS011;54051;53.464;49.532;2023-04-07T06:34:25;7.68;;;3.33;;
67130;SDS011;54051;53.464;49.532;2023-04-07T06:39:17;7.68;;;3.20;;
67130;SDS011;54051;53.464;49.532;2023-04-07T06:44:09;6.68;;;3.25;;
67130;SDS011;54051;53.464;49.532;2023-04-07T06:46:35;5.55;;;2.95;;
67130;SDS011;54051;53.464;49.532;2023-04-07T06:49:02;7.72;;;3.20;;
67130;SDS011;54051;53.464;49.532;2023-04-07T06:53:54;7.30;;;2.50;;
67130;SDS011;54051;53.464;49.532;2023-04-07T06:56:22;7.15;;;2.60;;
67130;SDS011;54051;53.464;49.532;2023-04-07T06:58:49;8.07;;;2.90;;
67130;SDS011;54051;53.464;49.532;2023-04-07T07:01:15;8.18;;;2.67;;
67130;SDS011;54051;53.464;49.532;2023-04-07T07:03:41;6.57;;;2.88;;
67130;SDS011;54051;53.464;49.532;2023-04-07T07:06:08;6.43;;;2.50;;
67130;SDS011;54051;53.464;49.532;2023-04-07T07:11:00;6.20;;;2.90;;
67130;SDS011;54051;53.464;49.532;2023-04-07T07:15:53;6.88;;;2.85;;
67130;SDS011;54051;53.464;49.532;2023-04-07T07:18:19;6.05;;;2.40;;
67130;SDS011;54051;53.464;49.532;2023-04-07T07:23:12;7.35;;;2.97;;
67130;SDS011;54051;53.464;49.532;2023-04-07T07:28:04;9.07;;;3.30;;
67130;SDS011;54051;53.464;49.532;2023-04-07T07:32:56;8.27;;;2.40;;
67130;SDS011;54051;53.464;49.532;2023-04-07T07:37:50;4.90;;;2.35;;
67130;SDS011;54051;53.464;49.532;2023-04-07T07:40:17;6.50;;;2.72;;
67130;SDS011;54051;53.464;49.532;2023-04-07T07:45:12;5.55;;;2.50;;
67130;SDS011;54051;53.464;49.532;2023-04-07T07:47:39;10.50;;;2.65;;
67130;SDS011;54051;53.464;49.532;2023-04-07T07:50:06;6.57;;;2.33;;
67130;SDS011;54051;53.464;49.532;2023-04-07T07:52:32;5.88;;;2.80;;
67130;SDS011;54051;53.464;49.532;2023-04-07T07:54:59;23.50;;;3.05;;
67130;SDS011;54051;53.464;49.532;2023-04-07T07:57:25;6.47;;;2.40;;
67130;SDS011;54051;53.464;49.532;2023-04-07T07:59:51;11.75;;;3.03;;
67130;SDS011;54051;53.464;49.532;2023-04-07T08:02:18;12.57;;;3.10;;
67130;SDS011;54051;53.464;49.532;2023-04-07T08:04:44;18.42;;;2.83;;
67130;SDS011;54051;53.464;49.532;2023-04-07T08:07:10;5.38;;;2.40;;
67130;SDS011;54051;53.464;49.532;2023-04-07T08:09:36;18.58;;;3.40;;
67130;SDS011;54051;53.464;49.532;2023-04-07T08:12:03;7.57;;;2.58;;
67130;SDS011;54051;53.464;49.532;2023-04-07T08:14:29;6.38;;;2.80;;
67130;SDS011;54051;53.464;49.532;2023-04-07T08:16:55;4.90;;;2.80;;
67130;SDS011;54051;53.464;49.532;2023-04-07T08:19:22;9.35;;;3.00;;
67130;SDS011;54051;53.464;49.532;2023-04-07T08:21:48;8.35;;;2.80;;
67130;SDS011;54051;53.464;49.532;2023-04-07T08:33:59;6.70;;;2.90;;
67130;SDS011;54051;53.464;49.532;2023-04-07T08:36:25;8.45;;;2.80;;
67130;SDS011;54051;53.464;49.532;2023-04-07T08:38:52;6.80;;;2.60;;
67130;SDS011;54051;53.464;49.532;2023-04-07T08:41:20;7.75;;;3.10;;
67130;SDS011;54051;53.464;49.532;2023-04-07T08:43:55;5.57;;;2.53;;
67130;SDS011;54051;53.464;49.532;2023-04-07T08:46:23;13.38;;;2.92;;
67130;SDS011;54051;53.464;49.532;2023-04-07T08:48:51;7.05;;;2.78;;
67130;SDS011;54051;53.464;49.532;2023-04-07T08:51:27;9.02;;;3.00;;
67130;SDS011;54051;53.464;49.532;2023-04-07T08:56:32;6.80;;;2.90;;
67130;SDS011;54051;53.464;49.532;2023-04-07T08:59:00;5.93;;;2.50;;
67130;SDS011;54051;53.464;49.532;2023-04-07T09:01:27;5.57;;;2.70;;
67130;SDS011;54051;53.464;49.532;2023-04-07T09:03:55;7.20;;;2.80;;
67130;SDS011;54051;53.464;49.532;2023-04-07T09:06:23;5.57;;;2.70;;
67130;SDS011;54051;53.464;49.532;2023-04-07T09:08:49;6.22;;;2.63;;
67130;SDS011;54051;53.464;49.532;2023-04-07T09:11:15;5.22;;;2.60;;
67130;SDS011;54051;53.464;49.532;2023-04-07T09:13:41;4.95;;;2.47;;
67130;SDS011;54051;53.464;49.532;2023-04-07T09:16:08;9.90;;;3.00;;
67130;SDS011;54051;53.464;49.532;2023-04-07T09:18:34;5.82;;;2.50;;
67130;SDS011;54051;53.464;49.532;2023-04-07T09:21:01;5.72;;;2.85;;
67130;SDS011;54051;53.464;49.532;2023-04-07T09:23:30;5.57;;;2.60;;
67130;SDS011;54051;53.464;49.532;2023-04-07T09:25:58;5.55;;;2.47;;
67130;SDS011;54051;53.464;49.532;2023-04-07T09:28:46;8.95;;;2.90;;
67130;SDS011;54051;53.464;49.532;2023-04-07T09:31:13;6.78;;;2.60;;
67130;SDS011;54051;53.464;49.532;2023-04-07T09:33:39;10.95;;;2.70;;
67130;SDS011;54051;53.464;49.532;2023-04-07T09:36:06;6.75;;;2.70;;
67130;SDS011;54051;53.464;49.532;2023-04-07T09:38:33;4.80;;;2.45;;
67130;SDS011;54051;53.464;49.532;2023-04-07T09:41:13;7.53;;;2.63;;
67130;SDS011;54051;53.464;49.532;2023-04-07T09:43:43;6.00;;;2.40;;
67130;SDS011;54051;53.464;49.532;2023-04-07T09:48:41;8.35;;;2.83;;
67130;SDS011;54051;53.464;49.532;2023-04-07T09:51:12;6.40;;;2.70;;
67130;SDS011;54051;53.464;49.532;2023-04-07T09:53:43;5.97;;;2.70;;
67130;SDS011;54051;53.464;49.532;2023-04-07T09:56:15;7.05;;;2.83;;
67130;SDS011;54051;53.464;49.532;2023-04-07T09:58:43;5.65;;;2.92;;
67130;SDS011;54051;53.464;49.532;2023-04-07T10:01:11;6.60;;;2.85;;
67130;SDS011;54051;53.464;49.532;2023-04-07T10:03:38;8.25;;;3.38;;
67130;SDS011;54051;53.464;49.532;2023-04-07T10:06:05;7.65;;;3.70;;
67130;SDS011;54051;53.464;49.532;2023-04-07T10:08:33;6.70;;;3.20;;
67130;SDS011;54051;53.464;49.532;2023-04-07T10:11:01;6.25;;;3.25;;
67130;SDS011;54051;53.464;49.532;2023-04-07T10:13:28;16.30;;;3.85;;
67130;SDS011;54051;53.464;49.532;2023-04-07T10:16:01;13.93;;;3.63;;
67130;SDS011;54051;53.464;49.532;2023-04-07T10:18:30;6.00;;;3.15;;
67130;SDS011;54051;53.464;49.532;2023-04-07T10:20:59;7.40;;;3.65;;
67130;SDS011;54051;53.464;49.532;2023-04-07T10:23:43;5.57;;;3.30;;
67130;SDS011;54051;53.464;49.532;2023-04-07T10:26:22;35.88;;;4.72;;
67130;SDS011;54051;53.464;49.532;2023-04-07T10:28:52;9.23;;;3.85;;
67130;SDS011;54051;53.464;49.532;2023-04-07T10:31:24;9.32;;;3.95;;
67130;SDS011;54051;53.464;49.532;2023-04-07T10:36:18;7.35;;;3.78;;
67130;SDS011;54051;53.464;49.532;2023-04-07T10:41:34;11.40;;;4.18;;
67130;SDS011;54051;53.464;49.532;2023-04-07T10:44:05;8.02;;;4.35;;
67130;SDS011;54051;53.464;49.532;2023-04-07T10:49:14;7.97;;;4.03;;
67130;SDS011;54051;53.464;49.532;2023-04-07T10:51:43;7.32;;;4.00;;
67130;SDS011;54051;53.464;49.532;2023-04-07T10:54:18;6.57;;;3.87;;
67130;SDS011;54051;53.464;49.532;2023-04-07T10:59:30;8.27;;;3.42;;
67130;SDS011;54051;53.464;49.532;2023-04-07T11:04:40;7.00;;;3.30;;
67130;SDS011;54051;53.464;49.532;2023-04-07T11:07:08;7.45;;;3.25;;
67130;SDS011;54051;53.464;49.532;2023-04-07T11:09:35;7.20;;;3.20;;
67130;SDS011;54051;53.464;49.532;2023-04-07T11:12:02;9.48;;;3.30;;
67130;SDS011;54051;53.464;49.532;2023-04-07T11:14:30;6.43;;;3.33;;
67130;SDS011;54051;53.464;49.532;2023-04-07T11:16:57;6.60;;;3.50;;
67130;SDS011;54051;53.464;49.532;2023-04-07T11:19:26;7.72;;;3.42;;
67130;SDS011;54051;53.464;49.532;2023-04-07T11:24:38;5.63;;;3.00;;
67130;SDS011;54051;53.464;49.532;2023-04-07T11:29:37;6.68;;;3.00;;
67130;SDS011;54051;53.464;49.532;2023-04-07T11:32:03;5.88;;;3.03;;
67130;SDS011;54051;53.464;49.532;2023-04-07T11:34:30;8.07;;;3.67;;
67130;SDS011;54051;53.464;49.532;2023-04-07T11:39:56;8.15;;;3.70;;
67130;SDS011;54051;53.464;49.532;2023-04-07T11:44:58;6.85;;;3.55;;
67130;SDS011;54051;53.464;49.532;2023-04-07T11:47:38;10.23;;;4.00;;
67130;SDS011;54051;53.464;49.532;2023-04-07T11:50:05;11.63;;;4.20;;
67130;SDS011;54051;53.464;49.532;2023-04-07T11:52:45;9.93;;;4.05;;
67130;SDS011;54051;53.464;49.532;2023-04-07T11:55:22;7.20;;;4.07;;
67130;SDS011;54051;53.464;49.532;2023-04-07T11:57:51;10.52;;;4.13;;
67130;SDS011;54051;53.464;49.532;2023-04-07T12:00:18;8.00;;;3.83;;
67130;SDS011;54051;53.464;49.532;2023-04-07T12:02:45;6.35;;;3.70;;
67130;SDS011;54051;53.464;49.532;2023-04-07T12:05:13;9.15;;;3.60;;
67130;SDS011;54051;53.464;49.532;2023-04-07T12:07:39;7.53;;;3.58;;
67130;SDS011;54051;53.464;49.532;2023-04-07T12:10:17;8.88;;;4.10;;
67130;SDS011;54051;53.464;49.532;2023-04-07T12:12:45;26.13;;;4.43;;
67130;SDS011;54051;53.464;49.532;2023-04-07T12:15:12;9.50;;;4.13;;
67130;SDS011;54051;53.464;49.532;2023-04-07T12:17:42;7.60;;;3.88;;
67130;SDS011;54051;53.464;49.532;2023-04-07T12:20:10;10.50;;;5.03;;
67130;SDS011;54051;53.464;49.532;2023-04-07T12:22:36;8.52;;;4.20;;
67130;SDS011;54051;53.464;49.532;2023-04-07T12:25:02;6.83;;;3.70;;
67130;SDS011;54051;53.464;49.532;2023-04-07T12:27:29;7.47;;;3.38;;
67130;SDS011;54051;53.464;49.532;2023-04-07T12:29:55;6.95;;;3.60;;
67130;SDS011;54051;53.464;49.532;2023-04-07T12:32:22;6.20;;;3.70;;
67130;SDS011;54051;53.464;49.532;2023-04-07T12:34:48;8.95;;;3.75;;
67130;SDS011;54051;53.464;49.532;2023-04-07T12:37:14;6.97;;;4.00;;
67130;SDS011;54051;53.464;49.532;2023-04-07T12:39:40;11.50;;;4.32;;
67130;SDS011;54051;53.464;49.532;2023-04-07T12:42:07;6.88;;;3.85;;
67130;SDS011;54051;53.464;49.532;2023-04-07T12:44:36;7.22;;;3.83;;
67130;SDS011;54051;53.464;49.532;2023-04-07T12:47:03;7.68;;;3.80;;
67130;SDS011;54051;53.464;49.532;2023-04-07T12:49:29;6.70;;;3.55;;
67130;SDS011;54051;53.464;49.532;2023-04-07T12:51:55;8.53;;;3.93;;
67130;SDS011;54051;53.464;49.532;2023-04-07T12:54:22;6.53;;;3.63;;
67130;SDS011;54051;53.464;49.532;2023-04-07T12:56:49;7.55;;;3.60;;
67130;SDS011;54051;53.464;49.532;2023-04-07T12:59:16;7.63;;;4.07;;
67130;SDS011;54051;53.464;49.532;2023-04-07T13:01:42;8.05;;;3.83;;
67130;SDS011;54051;53.464;49.532;2023-04-07T13:04:08;8.90;;;3.60;;
67130;SDS011;54051;53.464;49.532;2023-04-07T13:06:34;8.10;;;3.93;;
67130;SDS011;54051;53.464;49.532;2023-04-07T13:09:01;8.27;;;3.83;;
67130;SDS011;54051;53.464;49.532;2023-04-07T13:11:27;8.32;;;3.97;;
67130;SDS011;54051;53.464;49.532;2023-04-07T13:13:53;6.73;;;3.50;;
67130;SDS011;54051;53.464;49.532;2023-04-07T13:16:20;9.83;;;4.00;;
67130;SDS011;54051;53.464;49.532;2023-04-07T13:18:46;7.80;;;4.05;;
67130;SDS011;54051;53.464;49.532;2023-04-07T13:21:12;11.15;;;3.78;;
67130;SDS011;54051;53.464;49.532;2023-04-07T13:23:38;9.43;;;3.77;;
67130;SDS011;54051;53.464;49.532;2023-04-07T13:26:04;6.97;;;3.70;;
67130;SDS011;54051;53.464;49.532;2023-04-07T13:28:31;10.43;;;4.07;;
67130;SDS011;54051;53.464;49.532;2023-04-07T13:30:58;10.07;;;3.45;;
67130;SDS011;54051;53.464;49.532;2023-04-07T13:33:24;9.93;;;3.57;;
67130;SDS011;54051;53.464;49.532;2023-04-07T13:35:50;6.30;;;3.57;;
67130;SDS011;54051;53.464;49.532;2023-04-07T13:38:17;8.00;;;3.30;;
67130;SDS011;54051;53.464;49.532;2023-04-07T13:40:43;7.93;;;3.73;;
67130;SDS011;54051;53.464;49.532;2023-04-07T13:43:09;9.43;;;3.90;;
67130;SDS011;54051;53.464;49.532;2023-04-07T13:45:37;7.28;;;3.40;;
67130;SDS011;54051;53.464;49.532;2023-04-07T13:48:03;7.80;;;3.38;;
67130;SDS011;54051;53.464;49.532;2023-04-07T13:50:29;14.40;;;4.17;;
67130;SDS011;54051;53.464;49.532;2023-04-07T13:52:56;6.78;;;3.25;;
67130;SDS011;54051;53.464;49.532;2023-04-07T13:55:22;10.03;;;3.80;;
67130;SDS011;54051;53.464;49.532;2023-04-07T13:57:48;11.40;;;3.90;;
67130;SDS011;54051;53.464;49.532;2023-04-07T14:00:15;8.70;;;3.70;;
67130;SDS011;54051;53.464;49.532;2023-04-07T14:02:41;12.50;;;3.65;;
67130;SDS011;54051;53.464;49.532;2023-04-07T14:05:10;9.80;;;3.78;;
67130;SDS011;54051;53.464;49.532;2023-04-07T14:07:36;8.67;;;3.60;;
67130;SDS011;54051;53.464;49.532;2023-04-07T14:10:02;10.13;;;3.80;;
67130;SDS011;54051;53.464;49.532;2023-04-07T14:12:29;7.68;;;3.63;;
67130;SDS011;54051;53.464;49.532;2023-04-07T14:14:55;9.37;;;3.87;;
67130;SDS011;54051;53.464;49.532;2023-04-07T14:17:21;8.45;;;3.70;;
67130;SDS011;54051;53.464;49.532;2023-04-07T14:19:47;6.93;;;3.20;;
67130;SDS011;54051;53.464;49.532;2023-04-07T14:22:14;9.00;;;3.33;;
67130;SDS011;54051;53.464;49.532;2023-04-07T14:24:40;9.45;;;3.10;;
67130;SDS011;54051;53.464;49.532;2023-04-07T14:27:06;10.97;;;3.30;;
67130;SDS011;54051;53.464;49.532;2023-04-07T14:29:32;8.02;;;3.15;;
67130;SDS011;54051;53.464;49.532;2023-04-07T14:31:58;6.57;;;3.33;;
67130;SDS011;54051;53.464;49.532;2023-04-07T14:34:25;9.43;;;3.75;;
67130;SDS011;54051;53.464;49.532;2023-04-07T14:36:51;9.73;;;3.50;;
67130;SDS011;54051;53.464;49.532;2023-04-07T14:39:19;7.25;;;3.50;;
67130;SDS011;54051;53.464;49.532;2023-04-07T14:41:47;9.75;;;3.40;;
67130;SDS011;54051;53.464;49.532;2023-04-07T14:44:13;9.47;;;3.70;;
67130;SDS011;54051;53.464;49.532;2023-04-07T14:46:40;6.25;;;2.97;;
67130;SDS011;54051;53.464;49.532;2023-04-07T14:49:07;8.50;;;3.55;;
67130;SDS011;54051;53.464;49.532;2023-04-07T14:54:00;9.10;;;3.63;;
67130;SDS011;54051;53.464;49.532;2023-04-07T14:56:26;7.70;;;3.63;;
67130;SDS011;54051;53.464;49.532;2023-04-07T14:58:53;9.90;;;3.50;;
67130;SDS011;54051;53.464;49.532;2023-04-07T15:01:19;9.75;;;3.42;;
67130;SDS011;54051;53.464;49.532;2023-04-07T15:03:45;6.95;;;3.28;;
67130;SDS011;54051;53.464;49.532;2023-04-07T15:06:12;10.13;;;3.88;;
67130;SDS011;54051;53.464;49.532;2023-04-07T15:08:38;7.93;;;3.60;;
67130;SDS011;54051;53.464;49.532;2023-04-07T15:11:05;8.32;;;3.80;;
67130;SDS011;54051;53.464;49.532;2023-04-07T15:13:33;6.97;;;3.75;;
67130;SDS011;54051;53.464;49.532;2023-04-07T15:16:10;9.35;;;4.10;;
67130;SDS011;54051;53.464;49.532;2023-04-07T15:18:38;7.97;;;4.63;;
67130;SDS011;54051;53.464;49.532;2023-04-07T15:21:09;8.57;;;4.80;;
67130;SDS011;54051;53.464;49.532;2023-04-07T15:23:37;9.88;;;4.82;;
67130;SDS011;54051;53.464;49.532;2023-04-07T15:26:04;10.80;;;5.05;;
67130;SDS011;54051;53.464;49.532;2023-04-07T15:30:57;11.20;;;5.47;;
67130;SDS011;54051;53.464;49.532;2023-04-07T15:33:24;13.25;;;6.65;;
67130;SDS011;54051;53.464;49.532;2023-04-07T15:35:51;11.38;;;6.28;;
67130;SDS011;54051;53.464;49.532;2023-04-07T15:38:17;12.80;;;6.60;;
67130;SDS011;54051;53.464;49.532;2023-04-07T15:40:43;13.33;;;6.33;;
67130;SDS011;54051;53.464;49.532;2023-04-07T15:43:10;12.15;;;6.28;;
67130;SDS011;54051;53.464;49.532;2023-04-07T15:45:40;12.52;;;6.18;;
67130;SDS011;54051;53.464;49.532;2023-04-07T15:48:07;12.00;;;6.05;;
67130;SDS011;54051;53.464;49.532;2023-04-07T15:50:34;13.50;;;6.00;;
67130;SDS011;54051;53.464;49.532;2023-04-07T15:53:01;12.48;;;5.70;;
67130;SDS011;54051;53.464;49.532;2023-04-07T15:55:29;10.98;;;5.88;;
67130;SDS011;54051;53.464;49.532;2023-04-07T15:57:56;12.48;;;5.68;;
67130;SDS011;54051;53.464;49.532;2023-04-07T16:00:23;12.32;;;5.40;;
67130;SDS011;54051;53.464;49.532;2023-04-07T16:02:51;11.10;;;5.88;;
67130;SDS011;54051;53.464;49.532;2023-04-07T16:05:20;12.02;;;5.82;;
67130;SDS011;54051;53.464;49.532;2023-04-07T16:07:46;12.18;;;6.15;;
67130;SDS011;54051;53.464;49.532;2023-04-07T16:10:12;13.95;;;6.28;;
67130;SDS011;54051;53.464;49.532;2023-04-07T16:12:39;12.52;;;6.00;;